createdAt,value
2018-08-10T00:00:28.362Z,53.19
2018-08-10T00:02:57.220Z,54.88
2018-08-10T00:05:26.038Z,54.53
2018-08-10T00:07:54.794Z,55.14
2018-08-10T00:10:24.042Z,55.37
2018-08-10T00:12:53.142Z,55.68
2018-08-10T00:15:22.193Z,55.67
2018-08-10T00:17:51.222Z,56.26
2018-08-10T00:20:20.590Z,56.08
2018-08-10T00:22:49.604Z,55.75
2018-08-10T00:25:18.911Z,56.08
2018-08-10T00:27:48.326Z,55.59
2018-08-10T00:30:18.739Z,56.17
2018-08-10T00:32:49.920Z,56.50
2018-08-10T00:35:18.633Z,56.76
2018-08-10T00:37:48.904Z,57.20
2018-08-10T00:40:21.106Z,56.63
2018-08-10T00:42:50.264Z,56.36
2018-08-10T00:45:19.774Z,56.53
2018-08-10T00:47:49.028Z,57.01
2018-08-10T00:50:19.190Z,58.03
2018-08-10T00:52:48.947Z,58.68
2018-08-10T00:55:19.650Z,57.57
2018-08-10T00:57:49.184Z,58.79
2018-08-10T01:00:21.994Z,59.29
2018-08-10T01:02:51.310Z,60.65
2018-08-10T01:05:19.958Z,61.60
2018-08-10T01:07:49.046Z,61.51
2018-08-10T01:10:19.752Z,62.24
2018-08-10T01:12:48.799Z,62.05
2018-08-10T01:15:18.275Z,62.84
2018-08-10T01:17:48.003Z,62.86
2018-08-10T01:20:24.332Z,62.90
2018-08-10T01:22:58.535Z,63.47
2018-08-10T01:25:28.149Z,64.64
2018-08-10T01:28:01.204Z,64.79
2018-08-10T01:30:31.057Z,65.25
2018-08-10T01:33:00.343Z,65.67
2018-08-10T01:35:29.603Z,65.49
2018-08-10T01:38:00.154Z,65.34
2018-08-10T01:40:29.081Z,65.16
2018-08-10T01:42:58.255Z,66.12
2018-08-10T01:45:26.978Z,65.36
2018-08-10T01:47:56.228Z,65.22
2018-08-10T01:50:25.063Z,65.12
2018-08-10T01:52:53.929Z,65.86
2018-08-10T01:55:23.355Z,65.51
2018-08-10T01:57:52.329Z,65.64
2018-08-10T02:00:21.059Z,66.17
2018-08-10T02:02:50.107Z,65.37
2018-08-10T02:05:18.905Z,64.99
2018-08-10T02:07:47.915Z,65.19
2018-08-10T02:10:18.569Z,66.03
2018-08-10T02:12:53.423Z,66.56
2018-08-10T02:15:22.491Z,66.69
2018-08-10T02:17:51.263Z,66.42
2018-08-10T02:20:21.616Z,65.72
2018-08-10T02:22:50.282Z,66.96
2018-08-10T02:25:20.486Z,68.32
2018-08-10T02:27:50.310Z,67.13
2018-08-10T02:30:20.664Z,67.57
2018-08-10T02:32:49.963Z,68.18
2018-08-10T02:35:18.624Z,68.37
2018-08-10T02:37:47.950Z,68.64
2018-08-10T02:40:19.226Z,69.94
2018-08-10T02:42:49.203Z,70.06
2018-08-10T02:45:18.476Z,69.06
2018-08-10T02:47:48.190Z,69.97
2018-08-10T02:50:17.700Z,70.91
2018-08-10T02:52:46.806Z,69.62
2018-08-10T02:55:15.922Z,69.78
2018-08-10T02:57:45.413Z,70.30
2018-08-10T03:00:15.303Z,71.29
2018-08-10T03:02:44.588Z,71.23
2018-08-10T03:05:13.689Z,71.38
2018-08-10T03:07:42.913Z,72.57
2018-08-10T03:10:13.044Z,73.41
2018-08-10T03:12:41.928Z,72.60
2018-08-10T03:15:13.818Z,72.91
2018-08-10T03:17:43.404Z,74.07
2018-08-10T03:20:12.596Z,72.96
2018-08-10T03:22:42.510Z,72.50
2018-08-10T03:25:12.947Z,72.14
2018-08-10T03:27:41.821Z,72.88
2018-08-10T03:30:11.992Z,72.71
2018-08-10T03:32:40.679Z,72.00
2018-08-10T03:35:09.428Z,72.36
2018-08-10T03:37:39.249Z,72.64
2018-08-10T03:40:11.143Z,72.95
2018-08-10T03:42:40.403Z,73.07
2018-08-10T03:45:09.503Z,73.51
2018-08-10T03:47:38.806Z,74.23
2018-08-10T03:50:09.386Z,74.90
2018-08-10T03:52:38.506Z,75.58
2018-08-10T03:55:07.664Z,75.25
2018-08-10T03:57:37.142Z,74.83
2018-08-10T04:00:07.639Z,74.31
2018-08-10T04:02:36.315Z,74.36
2018-08-10T04:05:05.675Z,73.76
2018-08-10T04:07:34.740Z,73.55
2018-08-10T04:10:03.783Z,74.05
2018-08-10T04:12:33.050Z,73.52
2018-08-10T04:15:02.191Z,73.33
2018-08-10T04:17:31.371Z,73.21
2018-08-10T04:20:00.641Z,72.66
2018-08-10T04:22:29.300Z,72.72
2018-08-10T04:24:58.531Z,73.73
2018-08-10T04:27:27.248Z,73.09
2018-08-10T04:29:56.088Z,72.98
2018-08-10T04:32:24.840Z,72.61
2018-08-10T04:34:53.951Z,72.75
2018-08-10T04:37:23.034Z,73.08
2018-08-10T04:39:52.225Z,73.30
2018-08-10T04:42:20.955Z,72.72
2018-08-10T04:44:49.783Z,70.32
2018-08-10T04:47:18.973Z,70.08
2018-08-10T04:49:48.474Z,69.92
2018-08-10T04:52:17.650Z,71.13
2018-08-10T04:54:46.719Z,70.32
2018-08-10T04:57:15.767Z,69.56
2018-08-10T04:59:44.563Z,69.29
2018-08-10T05:02:13.479Z,69.13
2018-08-10T05:04:42.781Z,68.98
2018-08-10T05:07:11.863Z,68.43
2018-08-10T05:09:40.737Z,68.38
2018-08-10T05:12:10.255Z,68.04
2018-08-10T05:14:39.518Z,67.72
2018-08-10T05:17:08.426Z,67.27
2018-08-10T05:19:37.942Z,67.60
2018-08-10T05:22:07.120Z,67.91
2018-08-10T05:24:36.225Z,66.90
2018-08-10T05:27:04.955Z,65.91
2018-08-10T05:29:34.241Z,65.42
2018-08-10T05:32:03.839Z,64.83
2018-08-10T05:34:32.798Z,63.99
2018-08-10T05:37:02.262Z,63.12
2018-08-10T05:39:31.402Z,63.23
2018-08-10T05:42:00.396Z,63.27
2018-08-10T05:44:29.745Z,63.12
2018-08-10T05:46:58.823Z,63.22
2018-08-10T05:49:27.912Z,63.01
2018-08-10T05:51:57.331Z,63.01
2018-08-10T05:54:26.446Z,62.59
2018-08-10T05:56:55.069Z,62.04
2018-08-10T05:59:24.187Z,61.08
2018-08-10T06:01:52.931Z,60.56
2018-08-10T06:04:21.971Z,59.92
2018-08-10T06:06:51.296Z,58.91
2018-08-10T06:09:20.172Z,58.24
2018-08-10T06:11:48.914Z,57.88
2018-08-10T06:14:17.849Z,57.94
2018-08-10T06:16:47.000Z,58.26
2018-08-10T06:19:15.940Z,58.22
2018-08-10T06:21:45.452Z,58.00
2018-08-10T06:24:14.611Z,56.29
2018-08-10T06:26:43.589Z,55.38
2018-08-10T06:29:13.008Z,55.63
2018-08-10T06:31:41.846Z,56.76
2018-08-10T06:34:10.569Z,56.21
2018-08-10T06:36:39.530Z,55.82
2018-08-10T06:39:09.938Z,54.76
2018-08-10T06:41:39.267Z,53.73
2018-08-10T06:44:08.876Z,53.75
2018-08-10T06:46:38.092Z,54.68
2018-08-10T06:49:07.147Z,53.35
2018-08-10T06:51:36.576Z,53.08
2018-08-10T06:54:05.316Z,53.54
2018-08-10T06:56:34.141Z,52.96
2018-08-10T06:59:02.868Z,53.24
2018-08-10T07:01:31.716Z,53.22
2018-08-10T07:04:00.654Z,52.66
2018-08-10T07:06:29.827Z,50.33
2018-08-10T07:09:30.578Z,51.87
2018-08-10T07:12:00.015Z,50.97
2018-08-10T07:14:28.826Z,50.33
2018-08-10T07:16:57.694Z,50.44
2018-08-10T07:19:26.633Z,48.27
2018-08-10T07:21:55.370Z,46.14
2018-08-10T07:24:24.404Z,47.50
2018-08-10T07:26:53.312Z,46.58
2018-08-10T07:29:21.972Z,44.45
2018-08-10T07:31:50.938Z,45.04
2018-08-10T07:34:19.982Z,45.05
2018-08-10T07:36:48.883Z,44.43
2018-08-10T07:39:17.545Z,44.59
2018-08-10T07:41:46.285Z,43.03
2018-08-10T07:44:15.025Z,43.25
2018-08-10T07:46:43.805Z,43.38
2018-08-10T07:49:13.039Z,43.63
2018-08-10T07:51:42.102Z,43.55
2018-08-10T07:54:10.890Z,43.20
2018-08-10T07:56:39.884Z,42.43
2018-08-10T07:59:08.923Z,42.35
2018-08-10T08:01:37.989Z,43.09
2018-08-10T08:04:07.819Z,42.43
2018-08-10T08:06:36.918Z,40.76
2018-08-10T08:09:08.922Z,41.31
2018-08-10T08:11:38.149Z,41.11
2018-08-10T08:14:06.954Z,41.48
2018-08-10T08:16:42.752Z,39.86
2018-08-10T08:19:11.934Z,40.96
2018-08-10T08:22:16.126Z,40.17
2018-08-10T08:24:45.155Z,40.99
2018-08-10T08:27:15.427Z,39.64
2018-08-10T08:29:44.478Z,39.40
2018-08-10T08:32:13.658Z,39.89
2018-08-10T08:34:42.718Z,38.07
2018-08-10T08:37:12.212Z,38.75
2018-08-10T08:40:51.684Z,38.28
2018-08-10T08:43:39.105Z,38.30
2018-08-10T08:46:12.114Z,37.91
2018-08-10T08:48:44.755Z,38.16
2018-08-10T08:51:30.076Z,37.05
2018-08-10T08:54:10.028Z,37.50
2018-08-10T08:56:44.001Z,37.11
2018-08-10T08:59:13.102Z,35.33
2018-08-10T09:01:42.001Z,35.53
2018-08-10T09:05:05.734Z,35.72
2018-08-10T09:07:35.136Z,34.34
2018-08-10T09:10:06.618Z,35.40
2018-08-10T09:12:35.627Z,34.21
2018-08-10T09:15:07.739Z,33.88
2018-08-10T09:17:36.516Z,33.06
2018-08-10T09:20:06.734Z,32.74
2018-08-10T09:22:36.295Z,33.55
2018-08-10T09:25:08.010Z,33.68
2018-08-10T09:27:37.114Z,32.72
2018-08-10T09:30:08.823Z,33.04
2018-08-10T09:32:38.134Z,31.70
2018-08-10T09:35:08.196Z,31.51
2018-08-10T09:37:37.428Z,31.70
2018-08-10T09:40:10.532Z,31.79
2018-08-10T09:42:39.310Z,31.45
2018-08-10T09:45:09.171Z,30.79
2018-08-10T09:47:38.650Z,31.55
2018-08-10T09:50:09.224Z,31.04
2018-08-10T09:52:37.995Z,30.92
2018-08-10T09:55:28.519Z,29.85
2018-08-10T09:58:04.449Z,30.92
2018-08-10T10:00:38.867Z,29.19
2018-08-10T10:03:13.859Z,29.96
2018-08-10T10:05:43.559Z,28.71
2018-08-10T10:08:12.993Z,29.66
2018-08-10T10:10:42.083Z,29.08
2018-08-10T10:13:11.422Z,27.38
2018-08-10T10:15:40.427Z,27.01
2018-08-10T10:18:10.760Z,26.96
2018-08-10T10:20:39.907Z,26.82
2018-08-10T10:23:08.693Z,26.28
2018-08-10T10:25:37.300Z,26.81
2018-08-10T10:28:06.601Z,26.51
2018-08-10T10:30:35.596Z,24.26
2018-08-10T10:33:04.683Z,24.18
2018-08-10T10:35:33.906Z,25.09
2018-08-10T10:38:02.944Z,25.45
2018-08-10T10:40:31.694Z,25.53
2018-08-10T10:43:00.882Z,24.85
2018-08-10T10:45:29.792Z,24.29
2018-08-10T10:47:58.839Z,24.04
2018-08-10T10:50:27.868Z,23.27
2018-08-10T10:52:56.970Z,23.80
2018-08-10T10:55:25.758Z,24.33
2018-08-10T10:57:54.891Z,25.02
2018-08-10T11:00:23.678Z,23.98
2018-08-10T11:02:52.805Z,24.23
2018-08-10T11:05:22.136Z,24.97
2018-08-10T11:07:50.840Z,25.54
2018-08-10T11:10:20.302Z,24.76
2018-08-10T11:12:49.427Z,23.43
2018-08-10T11:15:18.323Z,23.54
2018-08-10T11:17:47.258Z,23.44
2018-08-10T11:20:16.480Z,22.21
2018-08-10T11:22:45.395Z,22.61
2018-08-10T11:25:15.123Z,22.63
2018-08-10T11:27:44.914Z,22.67
2018-08-10T11:30:14.134Z,22.73
2018-08-10T11:32:43.250Z,22.15
2018-08-10T11:35:12.723Z,22.42
2018-08-10T11:37:41.497Z,22.72
2018-08-10T11:40:13.357Z,21.83
2018-08-10T11:42:43.056Z,21.54
2018-08-10T11:45:14.658Z,21.23
2018-08-10T11:47:43.767Z,20.81
2018-08-10T11:50:12.833Z,21.23
2018-08-10T11:52:41.942Z,21.01
2018-08-10T11:55:12.404Z,22.72
2018-08-10T11:57:41.635Z,22.10
2018-08-10T12:00:12.637Z,21.16
2018-08-10T12:02:41.706Z,21.96
2018-08-10T12:05:12.345Z,21.31
2018-08-10T12:07:42.086Z,20.93
2018-08-10T12:10:11.093Z,21.08
2018-08-10T12:12:40.137Z,20.54
2018-08-10T12:15:11.105Z,20.52
2018-08-10T12:17:39.932Z,20.14
2018-08-10T12:20:09.188Z,19.55
2018-08-10T12:22:38.350Z,19.19
2018-08-10T12:25:07.070Z,19.02
2018-08-10T12:27:36.213Z,18.68
2018-08-10T12:30:06.244Z,18.42
2018-08-10T12:32:35.540Z,19.48
2018-08-10T12:35:04.742Z,19.34
2018-08-10T12:37:33.944Z,20.25
2018-08-10T12:40:02.866Z,19.68
2018-08-10T12:42:32.147Z,19.76
2018-08-10T12:45:01.452Z,19.32
2018-08-10T12:47:30.317Z,18.81
2018-08-10T12:49:59.506Z,18.47
2018-08-10T12:52:28.543Z,18.79
2018-08-10T12:54:57.481Z,18.29
2018-08-10T12:57:26.923Z,17.69
2018-08-10T12:59:56.366Z,18.60
2018-08-10T13:02:25.454Z,18.57
2018-08-10T13:04:54.367Z,18.30
2018-08-10T13:07:23.622Z,18.13
2018-08-10T13:09:52.536Z,18.10
2018-08-10T13:12:21.315Z,17.29
2018-08-10T13:14:50.608Z,16.97
2018-08-10T13:17:19.538Z,17.43
2018-08-10T13:19:48.324Z,18.47
2018-08-10T13:22:18.215Z,19.10
2018-08-10T13:24:46.946Z,19.33
2018-08-10T13:27:15.888Z,19.58
2018-08-10T13:29:45.465Z,19.73
2018-08-10T13:32:14.451Z,19.59
2018-08-10T13:34:43.200Z,19.17
2018-08-10T13:37:12.167Z,18.29
2018-08-10T13:39:41.071Z,19.15
2018-08-10T13:42:10.177Z,18.29
2018-08-10T13:44:39.017Z,18.65
2018-08-10T13:47:07.933Z,18.49
2018-08-10T13:49:37.131Z,18.03
2018-08-10T13:52:05.827Z,18.94
2018-08-10T13:54:34.560Z,19.56
2018-08-10T13:57:04.098Z,19.82
2018-08-10T13:59:33.296Z,20.03
2018-08-10T14:02:02.240Z,19.47
2018-08-10T14:04:31.406Z,20.18
2018-08-10T14:07:00.554Z,21.30
2018-08-10T14:09:29.614Z,22.05
2018-08-10T14:11:59.061Z,22.16
2018-08-10T14:14:28.211Z,22.17
2018-08-10T14:16:57.470Z,22.07
2018-08-10T14:19:26.913Z,21.76
2018-08-10T14:21:55.657Z,21.01
2018-08-10T14:24:24.512Z,20.96
2018-08-10T14:26:54.232Z,20.34
2018-08-10T14:29:23.175Z,20.12
2018-08-10T14:31:51.963Z,20.29
2018-08-10T14:34:21.287Z,19.85
2018-08-10T14:36:50.308Z,20.76
2018-08-10T14:39:19.396Z,20.69
2018-08-10T14:41:48.735Z,21.47
2018-08-10T14:44:17.500Z,21.49
2018-08-10T14:46:46.363Z,21.65
2018-08-10T14:49:15.191Z,20.92
2018-08-10T14:51:43.972Z,22.26
2018-08-10T14:54:12.727Z,22.50
2018-08-10T14:56:42.034Z,23.35
2018-08-10T14:59:11.001Z,23.81
2018-08-10T15:01:39.999Z,23.96
2018-08-10T15:04:09.077Z,23.94
2018-08-10T15:06:38.119Z,24.59
2018-08-10T15:09:10.864Z,23.76
2018-08-10T15:11:39.906Z,24.48
2018-08-10T15:14:09.250Z,25.22
2018-08-10T15:16:38.216Z,26.70
2018-08-10T15:19:07.249Z,26.03
2018-08-10T15:21:35.990Z,26.07
2018-08-10T15:24:05.046Z,27.29
2018-08-10T15:26:33.734Z,27.66
2018-08-10T15:29:02.920Z,27.76
2018-08-10T15:31:32.570Z,27.95
2018-08-10T15:34:01.709Z,28.66
2018-08-10T15:36:30.765Z,28.88
2018-08-10T15:38:59.924Z,29.28
2018-08-10T15:41:28.993Z,28.70
2018-08-10T15:43:57.757Z,29.78
2018-08-10T15:46:26.831Z,28.55
2018-08-10T15:48:55.899Z,28.41
2018-08-10T15:51:24.649Z,28.55
2018-08-10T15:53:53.845Z,28.05
2018-08-10T15:56:22.735Z,27.62
2018-08-10T15:58:51.367Z,27.46
2018-08-10T16:01:20.447Z,26.72
2018-08-10T16:03:49.327Z,25.84
2018-08-10T16:06:18.278Z,25.59
2018-08-10T16:08:47.652Z,25.12
2018-08-10T16:11:16.825Z,23.40
2018-08-10T16:13:45.915Z,22.56
2018-08-10T16:16:15.382Z,21.93
2018-08-10T16:18:44.467Z,22.22
2018-08-10T16:21:13.380Z,21.19
2018-08-10T16:23:42.421Z,21.14
2018-08-10T16:26:11.186Z,20.52
2018-08-10T16:28:40.211Z,20.74
2018-08-10T16:31:09.491Z,20.78
2018-08-10T16:33:38.507Z,20.95
2018-08-10T16:36:07.653Z,21.22
2018-08-10T16:38:36.832Z,20.70
2018-08-10T16:41:05.782Z,21.73
2018-08-10T16:43:34.893Z,21.45
2018-08-10T16:46:04.245Z,21.09
2018-08-10T16:48:33.171Z,22.42
2018-08-10T16:51:02.082Z,21.76
2018-08-10T16:53:31.393Z,21.91
2018-08-10T16:56:00.147Z,23.83
2018-08-10T16:58:29.051Z,23.38
2018-08-10T17:00:58.175Z,24.34
2018-08-10T17:03:27.343Z,24.39
2018-08-10T17:05:56.456Z,24.55
2018-08-10T17:08:25.909Z,25.66
2018-08-10T17:10:55.181Z,26.02
2018-08-10T17:13:24.430Z,26.94
2018-08-10T17:15:53.689Z,27.14
2018-08-10T17:18:22.767Z,27.79
2018-08-10T17:20:51.591Z,28.46
2018-08-10T17:23:20.363Z,29.32
2018-08-10T17:25:49.331Z,29.57
2018-08-10T17:28:18.345Z,30.92
2018-08-10T17:30:47.515Z,31.97
2018-08-10T17:33:16.506Z,31.96
2018-08-10T17:35:45.591Z,32.76
2018-08-10T17:38:14.551Z,33.83
2018-08-10T17:40:43.619Z,34.17
2018-08-10T17:43:12.779Z,34.57
2018-08-10T17:45:41.961Z,34.95
2018-08-10T17:48:10.902Z,35.34
2018-08-10T17:50:40.205Z,35.75
2018-08-10T17:53:09.395Z,37.21
2018-08-10T17:55:39.009Z,37.46
2018-08-10T17:58:07.915Z,37.74
2018-08-10T18:00:37.218Z,38.67
2018-08-10T18:03:07.100Z,38.62
2018-08-10T18:05:36.024Z,39.06
2018-08-10T18:08:05.141Z,40.24
2018-08-10T18:10:34.434Z,39.91
2018-08-10T18:13:03.311Z,40.88
2018-08-10T18:15:32.518Z,41.15
2018-08-10T18:18:01.344Z,41.43
2018-08-10T18:20:30.126Z,41.25
2018-08-10T18:22:59.008Z,42.18
2018-08-10T18:25:27.708Z,42.57
2018-08-10T18:27:56.975Z,42.84
2018-08-10T18:30:26.413Z,42.92
2018-08-10T18:32:55.492Z,42.78
2018-08-10T18:35:24.444Z,43.10
2018-08-10T18:37:53.857Z,43.89
2018-08-10T18:40:23.009Z,44.13
2018-08-10T18:42:52.045Z,44.89
2018-08-10T18:45:21.902Z,44.38
2018-08-10T18:47:50.694Z,45.41
2018-08-10T18:50:20.254Z,44.83
2018-08-10T18:52:49.295Z,45.16
2018-08-10T18:55:19.846Z,45.77
2018-08-10T18:57:49.399Z,45.53
2018-08-10T19:00:20.894Z,45.63
2018-08-10T19:02:50.178Z,45.57
2018-08-10T19:05:19.353Z,45.59
2018-08-10T19:07:49.020Z,45.15
2018-08-10T19:10:24.305Z,45.10
2018-08-10T19:12:53.034Z,44.35
2018-08-10T19:15:21.974Z,44.33
2018-08-10T19:17:51.067Z,44.20
2018-08-10T19:20:19.847Z,44.41
2018-08-10T19:22:48.746Z,43.59
2018-08-10T19:25:18.583Z,44.40
2018-08-10T19:27:47.764Z,44.86
2018-08-10T19:30:20.025Z,44.96
2018-08-10T19:32:49.335Z,44.66
2018-08-10T19:35:18.857Z,44.53
2018-08-10T19:37:47.776Z,45.39
2018-08-10T19:40:18.121Z,44.64
2018-08-10T19:42:47.312Z,45.31
2018-08-10T19:45:17.211Z,45.19
2018-08-10T19:47:46.005Z,45.20
2018-08-10T19:50:16.390Z,45.86
2018-08-10T19:52:45.144Z,45.64
2018-08-10T19:55:15.245Z,45.70
2018-08-10T19:57:44.188Z,45.56
2018-08-10T20:00:15.845Z,46.08
2018-08-10T20:02:46.806Z,46.47
2018-08-10T20:05:16.123Z,45.99
2018-08-10T20:07:45.400Z,46.23
2018-08-10T20:10:15.098Z,46.67
2018-08-10T20:12:44.295Z,46.64
2018-08-10T20:15:14.838Z,47.03
2018-08-10T20:17:43.632Z,46.80
2018-08-10T20:20:15.309Z,46.95
2018-08-10T20:22:44.355Z,47.17
2018-08-10T20:25:13.939Z,46.73
2018-08-10T20:27:43.191Z,46.36
2018-08-10T20:30:13.826Z,47.03
2018-08-10T20:32:43.237Z,46.69
2018-08-10T20:35:15.129Z,46.63
2018-08-10T20:37:44.311Z,46.64
2018-08-10T20:40:15.846Z,46.39
2018-08-10T20:42:45.059Z,46.52
2018-08-10T20:45:14.279Z,46.73
2018-08-10T20:47:43.212Z,46.74
2018-08-10T20:50:15.586Z,46.63
2018-08-10T20:52:45.453Z,47.17
2018-08-10T20:55:14.298Z,46.56
2018-08-10T20:57:44.075Z,47.13
2018-08-10T21:00:13.217Z,47.04
2018-08-10T21:02:43.641Z,47.33
2018-08-10T21:05:13.541Z,47.57
2018-08-10T21:07:42.475Z,47.23
2018-08-10T21:10:13.113Z,47.19
2018-08-10T21:12:42.591Z,47.40
2018-08-10T21:15:12.754Z,47.16
2018-08-10T21:17:42.486Z,46.90
2018-08-10T21:20:13.259Z,47.36
2018-08-10T21:22:42.399Z,47.30
2018-08-10T21:25:12.605Z,47.98
2018-08-10T21:30:21.343Z,48.30
2018-08-10T21:32:50.499Z,47.50
2018-08-10T21:35:19.527Z,47.40
2018-08-10T21:37:48.736Z,47.34
2018-08-10T21:40:17.607Z,48.08
2018-08-10T21:42:46.486Z,48.61
2018-08-10T21:45:15.215Z,48.58
2018-08-10T21:47:44.140Z,48.60
2018-08-10T21:50:14.275Z,48.70
2018-08-10T21:52:44.320Z,48.32
2018-08-10T21:55:13.216Z,49.03
2018-08-10T21:57:42.414Z,49.19
2018-08-10T22:00:57.080Z,49.09
2018-08-10T22:03:25.864Z,49.28
2018-08-10T22:05:54.759Z,49.35
2018-08-10T22:08:24.732Z,49.25
2018-08-10T22:10:53.753Z,48.69
2018-08-10T22:13:28.296Z,48.30
2018-08-10T22:16:02.253Z,48.42
2018-08-10T22:18:36.391Z,47.89
2018-08-10T22:21:05.288Z,47.50
2018-08-10T22:23:34.067Z,47.44
2018-08-10T22:26:03.371Z,47.71
2018-08-10T22:28:32.508Z,47.55
2018-08-10T22:31:01.422Z,47.14
2018-08-10T22:33:30.366Z,47.50
2018-08-10T22:35:59.273Z,48.05
2018-08-10T22:38:28.468Z,47.99
2018-08-10T22:40:57.181Z,48.36
2018-08-10T22:43:26.124Z,47.84
2018-08-10T22:45:54.819Z,48.52
2018-08-10T22:48:23.912Z,48.02
2018-08-10T22:50:52.568Z,48.41
2018-08-10T22:53:21.494Z,48.13
2018-08-10T22:55:50.624Z,48.68
2018-08-10T22:58:19.378Z,48.69
2018-08-10T23:00:48.455Z,49.53
2018-08-10T23:03:17.707Z,49.74
2018-08-10T23:05:46.325Z,49.78
2018-08-10T23:08:15.465Z,49.82
2018-08-10T23:10:44.777Z,49.74
2018-08-10T23:13:13.687Z,50.07
2018-08-10T23:15:42.414Z,50.44
2018-08-10T23:18:11.394Z,50.90
2018-08-10T23:20:40.043Z,50.89
2018-08-10T23:23:08.927Z,50.82
2018-08-10T23:25:38.186Z,50.79
2018-08-10T23:28:07.357Z,51.21
2018-08-10T23:30:36.433Z,51.41
2018-08-10T23:33:05.579Z,51.62
2018-08-10T23:35:34.595Z,52.49
2018-08-10T23:38:03.432Z,52.38
2018-08-10T23:40:32.541Z,52.90
2018-08-10T23:43:01.383Z,53.34
2018-08-10T23:45:30.163Z,53.14
2018-08-10T23:47:59.065Z,53.65
2018-08-10T23:50:28.188Z,53.49
2018-08-10T23:52:57.105Z,53.54
2018-08-10T23:55:26.285Z,53.71
2018-08-10T23:57:55.239Z,53.76
